createdAt,value
2018-06-29T00:03:11.120Z,1.50
2018-06-29T00:07:05.208Z,1.53
2018-06-29T00:10:59.184Z,1.50
2018-06-29T00:14:55.008Z,1.30
2018-06-29T00:18:49.443Z,1.30
2018-06-29T00:22:43.606Z,1.60
2018-06-29T00:26:37.536Z,1.50
2018-06-29T00:30:31.531Z,1.30
2018-06-29T00:34:25.639Z,1.20
2018-06-29T00:38:19.618Z,1.33
2018-06-29T00:42:12.351Z,1.60
2018-06-29T00:46:06.324Z,1.40
2018-06-29T00:50:00.255Z,1.53
2018-06-29T00:53:54.378Z,1.57
2018-06-29T00:57:48.488Z,1.40
2018-06-29T01:01:42.487Z,1.43
2018-06-29T01:05:38.794Z,1.50
2018-06-29T01:09:33.406Z,1.40
2018-06-29T01:13:26.817Z,1.40
2018-06-29T01:17:20.774Z,1.40
2018-06-29T01:21:14.714Z,1.40
2018-06-29T01:25:08.816Z,1.80
2018-06-29T01:29:02.798Z,2.13
2018-06-29T01:32:56.851Z,1.80
2018-06-29T01:36:50.726Z,2.40
2018-06-29T01:40:45.175Z,2.30
2018-06-29T01:44:39.114Z,2.57
2018-06-29T01:48:33.227Z,1.90
2018-06-29T01:52:27.199Z,1.90
2018-06-29T01:56:21.154Z,1.92
2018-06-29T02:00:15.158Z,2.20
2018-06-29T02:04:09.191Z,2.57
2018-06-29T02:08:03.213Z,2.20
2018-06-29T02:11:57.246Z,2.00
2018-06-29T02:15:51.189Z,2.73
2018-06-29T02:19:45.183Z,2.70
2018-06-29T02:23:39.992Z,2.60
2018-06-29T02:27:34.033Z,1.77
2018-06-29T02:31:28.097Z,2.00
2018-06-29T02:35:23.228Z,1.90
2018-06-29T02:39:17.579Z,2.60
2018-06-29T02:43:11.635Z,2.80
2018-06-29T02:47:06.020Z,2.90
2018-06-29T02:51:00.119Z,3.67
2018-06-29T02:54:54.208Z,2.40
2018-06-29T02:58:48.646Z,2.17
2018-06-29T03:02:42.643Z,2.37
2018-06-29T03:06:36.627Z,2.53
2018-06-29T03:10:30.613Z,2.60
2018-06-29T03:14:24.647Z,2.50
2018-06-29T03:18:18.693Z,2.33
2018-06-29T03:22:12.787Z,2.27
2018-06-29T03:26:06.938Z,2.87
2018-06-29T03:30:01.073Z,2.63
2018-06-29T03:33:55.062Z,2.80
2018-06-29T03:37:50.176Z,2.00
2018-06-29T03:41:44.656Z,2.90
2018-06-29T03:45:38.624Z,2.63
2018-06-29T03:49:32.697Z,2.97
2018-06-29T03:53:26.373Z,3.10
2018-06-29T03:57:19.953Z,3.00
2018-06-29T04:01:13.969Z,3.00
2018-06-29T04:05:07.965Z,2.70
2018-06-29T04:09:01.887Z,3.73
2018-06-29T04:12:55.894Z,3.50
2018-06-29T04:16:49.981Z,2.47
2018-06-29T04:20:44.373Z,3.00
2018-06-29T04:24:38.329Z,3.27
2018-06-29T04:28:32.323Z,2.80
2018-06-29T04:32:26.350Z,3.00
2018-06-29T04:36:20.385Z,2.90
2018-06-29T04:40:14.387Z,2.90
2018-06-29T04:44:08.385Z,2.60
2018-06-29T04:48:02.432Z,2.30
2018-06-29T04:51:56.342Z,2.37
2018-06-29T04:55:50.421Z,2.02
2018-06-29T04:59:44.241Z,2.20
2018-06-29T05:03:38.319Z,2.50
2018-06-29T05:07:32.275Z,2.33
2018-06-29T05:11:26.316Z,2.52
2018-06-29T05:15:20.317Z,2.22
2018-06-29T05:19:14.416Z,2.40
2018-06-29T05:23:08.709Z,2.63
2018-06-29T05:27:02.718Z,2.60
2018-06-29T05:30:56.727Z,3.07
2018-06-29T05:34:51.265Z,7.20
2018-06-29T05:38:45.154Z,3.13
2018-06-29T05:42:39.254Z,2.90
2018-06-29T05:46:33.410Z,3.10
2018-06-29T05:50:27.461Z,3.20
2018-06-29T05:54:21.822Z,4.30
2018-06-29T05:58:16.027Z,3.05
2018-06-29T06:02:09.701Z,4.40
2018-06-29T06:06:08.197Z,4.90
2018-06-29T06:10:02.212Z,3.83
2018-06-29T06:13:56.322Z,3.73
2018-06-29T06:17:50.037Z,3.33
2018-06-29T06:21:43.904Z,3.67
2018-06-29T06:25:38.168Z,3.67
2018-06-29T06:29:32.260Z,3.00
2018-06-29T06:33:26.482Z,3.63
2018-06-29T06:37:20.510Z,2.93
2018-06-29T06:41:14.627Z,3.90
2018-06-29T06:45:08.627Z,3.20
2018-06-29T06:49:02.535Z,2.93
2018-06-29T06:52:56.503Z,2.87
2018-06-29T06:56:50.603Z,2.40
2018-06-29T07:00:44.921Z,3.03
2018-06-29T07:04:39.067Z,2.93
2018-06-29T07:08:32.528Z,2.60
2018-06-29T07:12:26.781Z,2.60
2018-06-29T07:16:20.825Z,2.37
2018-06-29T07:20:15.140Z,3.35
2018-06-29T07:24:09.294Z,1.93
2018-06-29T07:28:04.131Z,1.90
2018-06-29T07:31:58.230Z,2.23
2018-06-29T07:35:52.311Z,2.57
2018-06-29T07:39:46.368Z,2.00
2018-06-29T07:43:40.381Z,2.00
2018-06-29T07:47:34.437Z,1.90
2018-06-29T07:51:28.655Z,1.83
2018-06-29T07:55:22.802Z,2.40
2018-06-29T07:59:16.269Z,2.17
2018-06-29T08:03:10.398Z,2.10
2018-06-29T08:07:04.611Z,2.00
2018-06-29T08:10:59.203Z,2.10
2018-06-29T08:14:53.356Z,1.80
2018-06-29T08:18:47.562Z,2.63
2018-06-29T08:22:41.763Z,2.23
2018-06-29T08:26:35.706Z,2.33
2018-06-29T08:30:29.807Z,2.00
2018-06-29T08:34:23.840Z,2.87
2018-06-29T08:38:17.846Z,1.90
2018-06-29T08:42:13.252Z,1.80
2018-06-29T08:46:07.508Z,1.40
2018-06-29T08:50:01.883Z,1.90
2018-06-29T08:53:56.073Z,1.73
2018-06-29T08:57:51.908Z,1.90
2018-06-29T09:01:46.122Z,1.70
2018-06-29T09:05:40.214Z,2.33
2018-06-29T09:09:34.215Z,2.20
2018-06-29T09:13:28.273Z,1.73
2018-06-29T09:17:22.267Z,2.20
2018-06-29T09:21:16.323Z,2.40
2018-06-29T09:25:10.852Z,1.80
2018-06-29T09:29:04.988Z,1.80
2018-06-29T09:32:59.195Z,1.60
2018-06-29T09:36:54.162Z,1.90
2018-06-29T09:40:48.304Z,1.90
2018-06-29T09:44:42.301Z,2.10
2018-06-29T09:48:37.536Z,1.93
2018-06-29T09:52:31.484Z,2.20
2018-06-29T09:56:25.646Z,1.90
2018-06-29T10:00:28.034Z,2.00
2018-06-29T10:04:22.219Z,1.80
2018-06-29T10:08:17.005Z,2.03
2018-06-29T10:12:11.030Z,2.00
2018-06-29T10:16:05.000Z,1.90
2018-06-29T10:19:59.107Z,2.07
2018-06-29T10:23:53.189Z,1.60
2018-06-29T10:27:47.343Z,1.33
2018-06-29T10:31:41.442Z,1.80
2018-06-29T10:35:35.527Z,1.50
2018-06-29T10:39:31.677Z,1.50
2018-06-29T10:43:26.286Z,1.40
2018-06-29T10:47:21.160Z,1.30
2018-06-29T10:51:15.186Z,1.00
2018-06-29T10:55:08.908Z,1.67
2018-06-29T10:59:02.423Z,1.40
2018-06-29T11:02:56.782Z,1.50
2018-06-29T11:06:52.014Z,1.47
2018-06-29T11:10:46.510Z,1.80
2018-06-29T11:14:42.087Z,1.73
2018-06-29T11:18:35.583Z,1.60
2018-06-29T11:22:28.885Z,1.90
2018-06-29T11:26:23.265Z,1.50
2018-06-29T11:30:17.520Z,2.67
2018-06-29T11:34:11.445Z,1.57
2018-06-29T11:38:05.386Z,1.87
2018-06-29T11:41:59.513Z,2.50
2018-06-29T11:45:53.677Z,1.50
2018-06-29T11:49:47.674Z,1.90
2018-06-29T11:53:41.715Z,1.47
2018-06-29T11:57:35.702Z,1.60
2018-06-29T12:01:29.172Z,1.90
2018-06-29T12:05:23.438Z,1.67
2018-06-29T12:09:17.509Z,1.52
2018-06-29T12:13:11.589Z,1.33
2018-06-29T12:17:05.758Z,1.60
2018-06-29T12:20:59.719Z,1.50
2018-06-29T12:24:53.689Z,1.10
2018-06-29T12:28:48.476Z,1.43
2018-06-29T12:32:42.886Z,1.45
2018-06-29T12:36:36.740Z,1.50
2018-06-29T12:40:30.672Z,1.42
2018-06-29T12:44:25.598Z,1.60
2018-06-29T12:48:20.217Z,1.20
2018-06-29T12:52:14.109Z,1.17
2018-06-29T12:56:08.534Z,1.50
2018-06-29T13:00:01.935Z,1.50
2018-06-29T13:03:55.934Z,1.40
2018-06-29T13:07:49.826Z,1.40
2018-06-29T13:11:44.991Z,1.55
2018-06-29T13:15:38.906Z,1.25
2018-06-29T13:19:33.152Z,1.72
2018-06-29T13:23:27.224Z,1.42
2018-06-29T13:27:21.465Z,1.52
2018-06-29T13:31:15.439Z,1.30
2018-06-29T13:35:09.450Z,1.42
2018-06-29T13:39:03.564Z,1.57
2018-06-29T13:42:57.580Z,1.40
2018-06-29T13:46:51.672Z,1.27
2018-06-29T13:50:45.883Z,1.22
2018-06-29T13:54:39.877Z,1.43
2018-06-29T13:58:33.398Z,1.60
2018-06-29T14:02:27.586Z,1.50
2018-06-29T14:06:21.515Z,1.30
2018-06-29T14:10:15.479Z,1.82
2018-06-29T14:14:09.414Z,1.62
2018-06-29T14:18:03.385Z,1.50
2018-06-29T14:21:57.287Z,1.40
2018-06-29T14:25:52.018Z,1.77
2018-06-29T14:29:46.019Z,1.87
2018-06-29T14:33:39.942Z,2.05
2018-06-29T14:37:33.830Z,1.75
2018-06-29T14:41:27.805Z,1.57
2018-06-29T14:45:21.831Z,1.52
2018-06-29T14:49:15.878Z,1.92
2018-06-29T14:53:09.985Z,1.50
2018-06-29T14:57:04.060Z,1.55
2018-06-29T15:00:57.498Z,1.67
2018-06-29T15:04:51.467Z,1.70
2018-06-29T15:08:45.377Z,1.55
2018-06-29T15:12:39.388Z,1.87
2018-06-29T15:16:33.073Z,1.60
2018-06-29T15:20:27.057Z,1.90
2018-06-29T15:24:21.189Z,1.70
2018-06-29T15:28:15.448Z,2.00
2018-06-29T15:32:09.640Z,2.00
2018-06-29T15:36:03.626Z,1.70
2018-06-29T15:39:57.970Z,1.60
2018-06-29T15:43:52.166Z,1.62
2018-06-29T15:47:48.280Z,1.92
2018-06-29T15:51:42.317Z,1.67
2018-06-29T15:55:36.693Z,2.10
2018-06-29T15:59:30.421Z,1.92
2018-06-29T16:03:24.733Z,1.80
2018-06-29T16:07:18.746Z,2.00
2018-06-29T16:11:13.022Z,1.80
2018-06-29T16:15:07.004Z,1.50
2018-06-29T16:19:01.554Z,1.60
2018-06-29T16:22:55.892Z,1.87
2018-06-29T16:26:50.090Z,2.00
2018-06-29T16:30:44.080Z,1.80
2018-06-29T16:34:39.123Z,1.55
2018-06-29T16:38:33.927Z,1.75
2018-06-29T16:42:28.204Z,1.50
2018-06-29T16:46:24.096Z,1.45
2018-06-29T16:50:18.317Z,2.10
2018-06-29T16:54:12.217Z,1.70
2018-06-29T16:58:06.299Z,1.87
2018-06-29T17:01:59.819Z,1.60
2018-06-29T17:05:54.011Z,1.50
2018-06-29T17:09:48.030Z,2.12
2018-06-29T17:13:42.084Z,2.00
2018-06-29T17:17:36.230Z,1.90
2018-06-29T17:21:31.284Z,1.65
2018-06-29T17:25:25.915Z,1.75
2018-06-29T17:29:22.448Z,1.50
2018-06-29T17:33:16.695Z,1.98
2018-06-29T17:37:10.992Z,2.08
2018-06-29T17:41:04.918Z,1.40
2018-06-29T17:44:59.613Z,1.70
2018-06-29T17:48:54.795Z,2.02
2018-06-29T17:52:49.190Z,1.60
2018-06-29T17:56:43.932Z,1.35
2018-06-29T18:00:38.108Z,1.42
2018-06-29T18:04:31.921Z,1.50
2018-06-29T18:08:25.890Z,1.50
2018-06-29T18:12:20.118Z,1.57
2018-06-29T18:16:14.076Z,1.62
2018-06-29T18:20:07.991Z,1.80
2018-06-29T18:24:01.895Z,1.90
2018-06-29T18:27:55.840Z,1.90
2018-06-29T18:31:49.791Z,1.80
2018-06-29T18:35:43.711Z,2.30
2018-06-29T18:39:37.667Z,2.80
2018-06-29T18:43:31.567Z,2.72
2018-06-29T18:47:25.456Z,2.70
2018-06-29T18:51:19.347Z,3.60
2018-06-29T18:55:13.309Z,3.83
2018-06-29T18:59:06.779Z,3.97
2018-06-29T19:03:00.843Z,4.03
2018-06-29T19:06:54.789Z,4.83
2018-06-29T19:10:48.731Z,4.83
2018-06-29T19:14:42.846Z,3.65
2018-06-29T19:18:36.743Z,3.80
2018-06-29T19:22:30.893Z,2.73
2018-06-29T19:26:25.117Z,2.87
2018-06-29T19:30:19.219Z,3.03
2018-06-29T19:34:13.135Z,3.27
2018-06-29T19:38:07.068Z,3.30
2018-06-29T19:42:01.058Z,4.00
2018-06-29T19:45:54.988Z,3.60
2018-06-29T19:49:48.937Z,3.10
2018-06-29T19:53:42.942Z,3.30
2018-06-29T19:57:36.909Z,3.23
2018-06-29T20:01:30.415Z,3.17
2018-06-29T20:05:24.363Z,3.97
2018-06-29T20:09:18.307Z,4.17
2018-06-29T20:13:12.314Z,3.40
2018-06-29T20:17:06.402Z,3.40
2018-06-29T20:21:00.396Z,3.43
2018-06-29T20:24:54.576Z,2.63
2018-06-29T20:28:48.570Z,3.40
2018-06-29T20:32:42.478Z,3.17
2018-06-29T20:36:36.441Z,2.90
2018-06-29T20:40:30.412Z,3.40
2018-06-29T20:44:24.362Z,3.40
2018-06-29T20:48:18.378Z,3.23
2018-06-29T20:52:12.337Z,3.70
2018-06-29T20:56:06.909Z,4.03
2018-06-29T21:00:00.974Z,3.83
2018-06-29T21:03:54.963Z,2.73
2018-06-29T21:07:48.448Z,2.70
2018-06-29T21:11:43.019Z,3.90
2018-06-29T21:15:37.018Z,4.37
2018-06-29T21:19:30.995Z,4.47
2018-06-29T21:23:24.651Z,3.67
2018-06-29T21:27:18.494Z,3.97
2018-06-29T21:31:12.523Z,3.77
2018-06-29T21:35:06.696Z,4.03
2018-06-29T21:39:00.624Z,3.70
2018-06-29T21:42:54.627Z,4.20
2018-06-29T21:46:48.617Z,4.70
2018-06-29T21:50:42.650Z,4.50
2018-06-29T21:54:36.748Z,3.53
2018-06-29T21:58:31.181Z,3.50
2018-06-29T22:02:23.871Z,3.67
2018-06-29T22:06:18.081Z,4.30
2018-06-29T22:10:12.098Z,4.50
2018-06-29T22:14:06.250Z,4.53
2018-06-29T22:18:00.198Z,4.27
2018-06-29T22:21:54.182Z,4.50
2018-06-29T22:25:48.310Z,3.80
2018-06-29T22:29:42.273Z,3.77
2018-06-29T22:33:36.470Z,3.23
2018-06-29T22:37:30.602Z,3.20
2018-06-29T22:41:24.674Z,4.43
2018-06-29T22:45:18.685Z,3.73
2018-06-29T22:49:12.712Z,4.10
2018-06-29T22:53:06.701Z,3.67
2018-06-29T22:57:00.673Z,3.93
2018-06-29T23:00:54.186Z,3.67
2018-06-29T23:04:48.095Z,3.60
2018-06-29T23:08:42.009Z,4.03
2018-06-29T23:12:36.063Z,3.90
2018-06-29T23:16:29.943Z,3.90
2018-06-29T23:20:23.889Z,4.17
2018-06-29T23:24:17.880Z,4.00
2018-06-29T23:28:11.879Z,4.40
2018-06-29T23:32:05.836Z,4.03
2018-06-29T23:35:59.783Z,4.00
2018-06-29T23:39:53.880Z,4.40
2018-06-29T23:43:47.919Z,4.33
2018-06-29T23:47:41.927Z,4.67
2018-06-29T23:51:35.917Z,4.87
2018-06-29T23:55:29.828Z,4.53
2018-06-29T23:59:23.306Z,3.83
